Terminal Aerodrome Forecast
Issued by NWS Billings, MT

Home | Current Version | Previous Version | Graphics & Text | Print | Product List | Glossary On
Versions: 1 2 3 4 5 6 7 8 9 10 11 12 13 14
000
FTUS45 KBYZ 132320
TAFMLS
TAF
KMLS 132320Z 1400/1424 10010KT P6SM FEW100 SCT200
     FM141000 26011KT P6SM VCSH FEW050 BKN100
     FM141600 26010KT P6SM -SHRA SCT050 BKN100=

USA.gov is the U.S. government's official web portal to all federal, state and local government web resources and services.